sensor_id;sensor_type;location;lat;lon;timestamp;P1;durP1;ratioP1;P2;durP2;ratioP2
20348;SDS011;10332;50.208;18.988;2022-08-01T00:01:15;7.20;;;4.15;;
20348;SDS011;10332;50.208;18.988;2022-08-01T00:03:42;4.78;;;3.88;;
20348;SDS011;10332;50.208;18.988;2022-08-01T00:06:09;4.20;;;3.80;;
20348;SDS011;10332;50.208;18.988;2022-08-01T00:08:37;4.78;;;3.63;;
20348;SDS011;10332;50.208;18.988;2022-08-01T00:11:04;4.00;;;3.60;;
20348;SDS011;10332;50.208;18.988;2022-08-01T00:13:32;3.25;;;2.92;;
20348;SDS011;10332;50.208;18.988;2022-08-01T00:15:59;2.92;;;2.58;;
20348;SDS011;10332;50.208;18.988;2022-08-01T00:18:26;4.10;;;3.70;;
20348;SDS011;10332;50.208;18.988;2022-08-01T00:20:54;3.30;;;2.92;;
20348;SDS011;10332;50.208;18.988;2022-08-01T00:23:21;2.17;;;1.98;;
20348;SDS011;10332;50.208;18.988;2022-08-01T00:25:49;5.15;;;3.28;;
20348;SDS011;10332;50.208;18.988;2022-08-01T00:28:16;3.40;;;3.10;;
20348;SDS011;10332;50.208;18.988;2022-08-01T00:30:44;3.33;;;3.03;;
20348;SDS011;10332;50.208;18.988;2022-08-01T00:33:11;2.40;;;2.15;;
20348;SDS011;10332;50.208;18.988;2022-08-01T00:35:38;2.30;;;2.10;;
20348;SDS011;10332;50.208;18.988;2022-08-01T00:38:06;4.50;;;3.97;;
20348;SDS011;10332;50.208;18.988;2022-08-01T00:40:33;3.08;;;2.55;;
20348;SDS011;10332;50.208;18.988;2022-08-01T00:43:01;2.25;;;2.05;;
20348;SDS011;10332;50.208;18.988;2022-08-01T00:45:28;3.15;;;2.85;;
20348;SDS011;10332;50.208;18.988;2022-08-01T00:47:56;2.40;;;2.20;;
20348;SDS011;10332;50.208;18.988;2022-08-01T00:50:23;3.10;;;2.70;;
20348;SDS011;10332;50.208;18.988;2022-08-01T00:52:51;3.78;;;3.20;;
20348;SDS011;10332;50.208;18.988;2022-08-01T00:55:18;2.83;;;2.17;;
20348;SDS011;10332;50.208;18.988;2022-08-01T00:57:47;2.90;;;2.60;;
20348;SDS011;10332;50.208;18.988;2022-08-01T01:00:32;5.00;;;3.85;;
20348;SDS011;10332;50.208;18.988;2022-08-01T01:03:21;4.47;;;3.80;;
20348;SDS011;10332;50.208;18.988;2022-08-01T01:09:46;5.03;;;4.30;;
20348;SDS011;10332;50.208;18.988;2022-08-01T01:14:51;9.60;;;5.22;;
20348;SDS011;10332;50.208;18.988;2022-08-01T01:17:57;6.75;;;5.05;;
20348;SDS011;10332;50.208;18.988;2022-08-01T01:20:43;6.28;;;5.28;;
20348;SDS011;10332;50.208;18.988;2022-08-01T01:26:17;9.55;;;7.35;;
20348;SDS011;10332;50.208;18.988;2022-08-01T01:29:05;6.90;;;5.60;;
20348;SDS011;10332;50.208;18.988;2022-08-01T01:31:50;7.85;;;5.40;;
20348;SDS011;10332;50.208;18.988;2022-08-01T01:34:25;9.00;;;5.75;;
20348;SDS011;10332;50.208;18.988;2022-08-01T01:36:59;9.40;;;6.03;;
20348;SDS011;10332;50.208;18.988;2022-08-01T01:39:31;9.02;;;5.60;;
20348;SDS011;10332;50.208;18.988;2022-08-01T01:42:03;4.40;;;4.00;;
20348;SDS011;10332;50.208;18.988;2022-08-01T01:44:33;7.05;;;5.47;;
20348;SDS011;10332;50.208;18.988;2022-08-01T01:47:03;7.15;;;6.10;;
20348;SDS011;10332;50.208;18.988;2022-08-01T01:49:32;7.72;;;6.07;;
20348;SDS011;10332;50.208;18.988;2022-08-01T01:52:01;7.07;;;5.28;;
20348;SDS011;10332;50.208;18.988;2022-08-01T01:54:35;8.00;;;5.75;;
20348;SDS011;10332;50.208;18.988;2022-08-01T01:57:07;10.50;;;6.60;;
20348;SDS011;10332;50.208;18.988;2022-08-01T01:59:38;8.70;;;5.85;;
20348;SDS011;10332;50.208;18.988;2022-08-01T02:02:07;7.45;;;4.93;;
20348;SDS011;10332;50.208;18.988;2022-08-01T02:04:40;5.68;;;4.40;;
20348;SDS011;10332;50.208;18.988;2022-08-01T02:07:13;5.93;;;5.05;;
20348;SDS011;10332;50.208;18.988;2022-08-01T02:09:47;8.30;;;5.93;;
20348;SDS011;10332;50.208;18.988;2022-08-01T02:12:16;10.57;;;6.00;;
20348;SDS011;10332;50.208;18.988;2022-08-01T02:14:48;7.90;;;5.60;;
20348;SDS011;10332;50.208;18.988;2022-08-01T02:17:20;7.13;;;5.00;;
20348;SDS011;10332;50.208;18.988;2022-08-01T02:19:51;9.23;;;6.88;;
20348;SDS011;10332;50.208;18.988;2022-08-01T02:22:26;13.45;;;6.72;;
20348;SDS011;10332;50.208;18.988;2022-08-01T02:25:04;8.68;;;6.22;;
20348;SDS011;10332;50.208;18.988;2022-08-01T02:30:44;8.30;;;4.80;;
20348;SDS011;10332;50.208;18.988;2022-08-01T02:33:16;9.75;;;6.40;;
20348;SDS011;10332;50.208;18.988;2022-08-01T02:35:46;9.00;;;6.88;;
20348;SDS011;10332;50.208;18.988;2022-08-01T02:38:40;10.77;;;7.07;;
20348;SDS011;10332;50.208;18.988;2022-08-01T02:41:21;9.15;;;5.93;;
20348;SDS011;10332;50.208;18.988;2022-08-01T02:43:52;8.40;;;5.63;;
20348;SDS011;10332;50.208;18.988;2022-08-01T02:46:28;11.75;;;7.30;;
20348;SDS011;10332;50.208;18.988;2022-08-01T02:49:02;11.90;;;8.20;;
20348;SDS011;10332;50.208;18.988;2022-08-01T02:51:35;13.05;;;9.32;;
20348;SDS011;10332;50.208;18.988;2022-08-01T02:54:07;12.98;;;10.55;;
20348;SDS011;10332;50.208;18.988;2022-08-01T02:56:37;10.13;;;7.95;;
20348;SDS011;10332;50.208;18.988;2022-08-01T02:59:08;11.85;;;9.30;;
20348;SDS011;10332;50.208;18.988;2022-08-01T03:01:46;16.45;;;11.00;;
20348;SDS011;10332;50.208;18.988;2022-08-01T03:04:16;11.30;;;8.93;;
20348;SDS011;10332;50.208;18.988;2022-08-01T03:06:47;20.52;;;11.43;;
20348;SDS011;10332;50.208;18.988;2022-08-01T03:09:15;11.40;;;8.20;;
20348;SDS011;10332;50.208;18.988;2022-08-01T03:11:45;12.13;;;9.55;;
20348;SDS011;10332;50.208;18.988;2022-08-01T03:14:16;11.48;;;9.13;;
20348;SDS011;10332;50.208;18.988;2022-08-01T03:16:48;13.90;;;9.73;;
20348;SDS011;10332;50.208;18.988;2022-08-01T03:19:18;15.15;;;10.95;;
20348;SDS011;10332;50.208;18.988;2022-08-01T03:21:51;13.27;;;9.88;;
20348;SDS011;10332;50.208;18.988;2022-08-01T03:24:20;14.40;;;10.85;;
20348;SDS011;10332;50.208;18.988;2022-08-01T03:26:50;16.52;;;11.52;;
20348;SDS011;10332;50.208;18.988;2022-08-01T03:29:21;12.13;;;9.68;;
20348;SDS011;10332;50.208;18.988;2022-08-01T03:31:53;15.20;;;10.90;;
20348;SDS011;10332;50.208;18.988;2022-08-01T03:34:22;13.52;;;9.32;;
20348;SDS011;10332;50.208;18.988;2022-08-01T03:36:54;11.02;;;8.80;;
20348;SDS011;10332;50.208;18.988;2022-08-01T03:39:31;9.95;;;7.95;;
20348;SDS011;10332;50.208;18.988;2022-08-01T03:42:05;13.05;;;10.15;;
20348;SDS011;10332;50.208;18.988;2022-08-01T03:44:39;12.80;;;10.30;;
20348;SDS011;10332;50.208;18.988;2022-08-01T03:47:13;12.18;;;9.68;;
20348;SDS011;10332;50.208;18.988;2022-08-01T03:49:44;10.88;;;8.98;;
20348;SDS011;10332;50.208;18.988;2022-08-01T03:52:14;11.38;;;9.00;;
20348;SDS011;10332;50.208;18.988;2022-08-01T03:54:47;11.30;;;9.57;;
20348;SDS011;10332;50.208;18.988;2022-08-01T03:57:20;11.98;;;10.00;;
20348;SDS011;10332;50.208;18.988;2022-08-01T04:00:03;16.13;;;11.88;;
20348;SDS011;10332;50.208;18.988;2022-08-01T04:02:36;13.57;;;10.57;;
20348;SDS011;10332;50.208;18.988;2022-08-01T04:05:04;13.23;;;11.15;;
20348;SDS011;10332;50.208;18.988;2022-08-01T04:07:33;15.25;;;11.88;;
20348;SDS011;10332;50.208;18.988;2022-08-01T04:10:06;17.08;;;12.93;;
20348;SDS011;10332;50.208;18.988;2022-08-01T04:12:33;19.77;;;13.25;;
20348;SDS011;10332;50.208;18.988;2022-08-01T04:15:01;17.67;;;13.52;;
20348;SDS011;10332;50.208;18.988;2022-08-01T04:17:31;13.55;;;11.02;;
20348;SDS011;10332;50.208;18.988;2022-08-01T04:19:58;8.68;;;7.10;;
20348;SDS011;10332;50.208;18.988;2022-08-01T04:22:25;7.78;;;6.75;;
20348;SDS011;10332;50.208;18.988;2022-08-01T04:24:54;8.30;;;6.68;;
20348;SDS011;10332;50.208;18.988;2022-08-01T04:27:31;9.70;;;7.82;;
20348;SDS011;10332;50.208;18.988;2022-08-01T04:30:35;14.23;;;10.63;;
20348;SDS011;10332;50.208;18.988;2022-08-01T04:33:06;13.80;;;11.00;;
20348;SDS011;10332;50.208;18.988;2022-08-01T04:35:37;15.43;;;12.32;;
20348;SDS011;10332;50.208;18.988;2022-08-01T04:38:27;15.40;;;12.43;;
20348;SDS011;10332;50.208;18.988;2022-08-01T04:40:58;17.30;;;12.82;;
20348;SDS011;10332;50.208;18.988;2022-08-01T04:43:35;11.90;;;9.07;;
20348;SDS011;10332;50.208;18.988;2022-08-01T04:46:05;13.27;;;9.82;;
20348;SDS011;10332;50.208;18.988;2022-08-01T04:48:34;13.15;;;9.40;;
20348;SDS011;10332;50.208;18.988;2022-08-01T04:51:11;13.35;;;10.65;;
20348;SDS011;10332;50.208;18.988;2022-08-01T04:53:42;8.93;;;7.93;;
20348;SDS011;10332;50.208;18.988;2022-08-01T04:56:12;9.38;;;7.40;;
20348;SDS011;10332;50.208;18.988;2022-08-01T04:58:41;10.43;;;7.15;;
20348;SDS011;10332;50.208;18.988;2022-08-01T05:01:09;11.52;;;9.00;;
20348;SDS011;10332;50.208;18.988;2022-08-01T05:03:38;15.40;;;11.55;;
20348;SDS011;10332;50.208;18.988;2022-08-01T05:06:06;12.30;;;10.10;;
20348;SDS011;10332;50.208;18.988;2022-08-01T05:08:33;13.52;;;11.00;;
20348;SDS011;10332;50.208;18.988;2022-08-01T05:11:03;12.70;;;9.10;;
20348;SDS011;10332;50.208;18.988;2022-08-01T05:13:30;13.00;;;9.68;;
20348;SDS011;10332;50.208;18.988;2022-08-01T05:15:57;11.32;;;8.70;;
20348;SDS011;10332;50.208;18.988;2022-08-01T05:18:25;13.82;;;10.77;;
20348;SDS011;10332;50.208;18.988;2022-08-01T05:20:54;11.23;;;8.98;;
20348;SDS011;10332;50.208;18.988;2022-08-01T05:23:21;16.85;;;11.98;;
20348;SDS011;10332;50.208;18.988;2022-08-01T05:26:08;14.50;;;10.65;;
20348;SDS011;10332;50.208;18.988;2022-08-01T05:28:41;13.43;;;10.52;;
20348;SDS011;10332;50.208;18.988;2022-08-01T05:31:09;12.90;;;9.60;;
20348;SDS011;10332;50.208;18.988;2022-08-01T05:33:36;12.32;;;9.68;;
20348;SDS011;10332;50.208;18.988;2022-08-01T05:36:04;13.20;;;9.30;;
20348;SDS011;10332;50.208;18.988;2022-08-01T05:38:32;10.65;;;7.65;;
20348;SDS011;10332;50.208;18.988;2022-08-01T05:41:00;7.88;;;5.75;;
20348;SDS011;10332;50.208;18.988;2022-08-01T05:43:28;9.65;;;6.65;;
20348;SDS011;10332;50.208;18.988;2022-08-01T05:45:55;9.20;;;6.22;;
20348;SDS011;10332;50.208;18.988;2022-08-01T05:48:24;10.55;;;6.43;;
20348;SDS011;10332;50.208;18.988;2022-08-01T05:50:52;8.68;;;6.50;;
20348;SDS011;10332;50.208;18.988;2022-08-01T05:53:24;7.90;;;6.15;;
20348;SDS011;10332;50.208;18.988;2022-08-01T05:55:52;11.63;;;6.60;;
20348;SDS011;10332;50.208;18.988;2022-08-01T05:58:20;7.95;;;5.78;;
20348;SDS011;10332;50.208;18.988;2022-08-01T06:00:48;9.35;;;5.63;;
20348;SDS011;10332;50.208;18.988;2022-08-01T06:03:15;7.97;;;5.65;;
20348;SDS011;10332;50.208;18.988;2022-08-01T06:05:42;7.28;;;6.03;;
20348;SDS011;10332;50.208;18.988;2022-08-01T06:08:09;6.35;;;5.65;;
20348;SDS011;10332;50.208;18.988;2022-08-01T06:10:37;10.90;;;5.57;;
20348;SDS011;10332;50.208;18.988;2022-08-01T06:13:04;7.68;;;5.22;;
20348;SDS011;10332;50.208;18.988;2022-08-01T06:15:32;8.85;;;6.70;;
20348;SDS011;10332;50.208;18.988;2022-08-01T06:17:59;8.48;;;5.65;;
20348;SDS011;10332;50.208;18.988;2022-08-01T06:20:27;6.47;;;5.22;;
20348;SDS011;10332;50.208;18.988;2022-08-01T06:22:55;5.97;;;4.80;;
20348;SDS011;10332;50.208;18.988;2022-08-01T06:25:25;5.28;;;4.65;;
20348;SDS011;10332;50.208;18.988;2022-08-01T06:27:52;6.05;;;4.57;;
20348;SDS011;10332;50.208;18.988;2022-08-01T06:30:20;5.50;;;4.25;;
20348;SDS011;10332;50.208;18.988;2022-08-01T06:32:47;5.60;;;4.28;;
20348;SDS011;10332;50.208;18.988;2022-08-01T06:35:16;4.20;;;3.72;;
20348;SDS011;10332;50.208;18.988;2022-08-01T06:37:44;4.65;;;3.80;;
20348;SDS011;10332;50.208;18.988;2022-08-01T06:40:13;5.28;;;4.25;;
20348;SDS011;10332;50.208;18.988;2022-08-01T06:42:43;3.90;;;3.47;;
20348;SDS011;10332;50.208;18.988;2022-08-01T06:45:12;6.65;;;5.15;;
20348;SDS011;10332;50.208;18.988;2022-08-01T06:47:41;5.10;;;3.40;;
20348;SDS011;10332;50.208;18.988;2022-08-01T06:50:16;9.27;;;6.53;;
20348;SDS011;10332;50.208;18.988;2022-08-01T06:52:44;5.53;;;3.80;;
20348;SDS011;10332;50.208;18.988;2022-08-01T06:55:11;9.63;;;6.82;;
20348;SDS011;10332;50.208;18.988;2022-08-01T06:57:46;4.35;;;3.53;;
20348;SDS011;10332;50.208;18.988;2022-08-01T07:00:20;9.30;;;7.63;;
20348;SDS011;10332;50.208;18.988;2022-08-01T07:02:52;4.82;;;3.08;;
20348;SDS011;10332;50.208;18.988;2022-08-01T07:05:23;5.22;;;3.80;;
20348;SDS011;10332;50.208;18.988;2022-08-01T07:07:51;5.85;;;3.92;;
20348;SDS011;10332;50.208;18.988;2022-08-01T07:10:18;2.60;;;2.33;;
20348;SDS011;10332;50.208;18.988;2022-08-01T07:12:45;5.50;;;3.63;;
20348;SDS011;10332;50.208;18.988;2022-08-01T07:15:13;3.92;;;3.13;;
20348;SDS011;10332;50.208;18.988;2022-08-01T07:17:41;7.68;;;4.88;;
20348;SDS011;10332;50.208;18.988;2022-08-01T07:20:11;3.00;;;2.28;;
20348;SDS011;10332;50.208;18.988;2022-08-01T07:22:42;4.03;;;2.53;;
20348;SDS011;10332;50.208;18.988;2022-08-01T07:25:13;2.83;;;2.45;;
20348;SDS011;10332;50.208;18.988;2022-08-01T07:27:40;2.28;;;1.85;;
20348;SDS011;10332;50.208;18.988;2022-08-01T07:30:08;1.95;;;1.80;;
20348;SDS011;10332;50.208;18.988;2022-08-01T07:32:36;6.53;;;5.38;;
20348;SDS011;10332;50.208;18.988;2022-08-01T07:35:03;10.98;;;9.05;;
20348;SDS011;10332;50.208;18.988;2022-08-01T07:37:31;5.00;;;4.07;;
20348;SDS011;10332;50.208;18.988;2022-08-01T07:40:14;4.57;;;3.67;;
20348;SDS011;10332;50.208;18.988;2022-08-01T07:42:44;4.45;;;2.83;;
20348;SDS011;10332;50.208;18.988;2022-08-01T07:45:13;2.63;;;2.20;;
20348;SDS011;10332;50.208;18.988;2022-08-01T07:47:41;4.65;;;2.53;;
20348;SDS011;10332;50.208;18.988;2022-08-01T07:50:09;2.88;;;1.90;;
20348;SDS011;10332;50.208;18.988;2022-08-01T07:52:39;3.35;;;2.08;;
20348;SDS011;10332;50.208;18.988;2022-08-01T07:55:06;2.38;;;2.10;;
20348;SDS011;10332;50.208;18.988;2022-08-01T07:57:35;2.20;;;2.00;;
20348;SDS011;10332;50.208;18.988;2022-08-01T08:00:03;3.63;;;2.92;;
20348;SDS011;10332;50.208;18.988;2022-08-01T08:02:36;7.45;;;5.85;;
20348;SDS011;10332;50.208;18.988;2022-08-01T08:05:03;4.40;;;4.00;;
20348;SDS011;10332;50.208;18.988;2022-08-01T08:07:31;2.55;;;2.33;;
20348;SDS011;10332;50.208;18.988;2022-08-01T08:09:58;3.30;;;2.10;;
20348;SDS011;10332;50.208;18.988;2022-08-01T08:12:26;3.92;;;1.98;;
20348;SDS011;10332;50.208;18.988;2022-08-01T08:14:55;2.63;;;1.83;;
20348;SDS011;10332;50.208;18.988;2022-08-01T08:17:25;5.25;;;2.00;;
20348;SDS011;10332;50.208;18.988;2022-08-01T08:19:53;6.10;;;2.97;;
20348;SDS011;10332;50.208;18.988;2022-08-01T08:22:21;5.32;;;3.90;;
20348;SDS011;10332;50.208;18.988;2022-08-01T08:24:48;2.85;;;2.55;;
20348;SDS011;10332;50.208;18.988;2022-08-01T08:27:16;3.75;;;2.83;;
20348;SDS011;10332;50.208;18.988;2022-08-01T08:29:44;3.67;;;2.28;;
20348;SDS011;10332;50.208;18.988;2022-08-01T08:32:12;4.13;;;1.98;;
20348;SDS011;10332;50.208;18.988;2022-08-01T08:34:39;3.00;;;2.33;;
20348;SDS011;10332;50.208;18.988;2022-08-01T08:37:08;5.47;;;1.88;;
20348;SDS011;10332;50.208;18.988;2022-08-01T08:39:37;1.90;;;1.70;;
20348;SDS011;10332;50.208;18.988;2022-08-01T08:42:08;2.75;;;1.50;;
20348;SDS011;10332;50.208;18.988;2022-08-01T08:44:38;4.00;;;2.03;;
20348;SDS011;10332;50.208;18.988;2022-08-01T08:47:13;2.63;;;2.00;;
20348;SDS011;10332;50.208;18.988;2022-08-01T08:49:46;3.22;;;2.72;;
20348;SDS011;10332;50.208;18.988;2022-08-01T08:52:20;2.92;;;2.47;;
20348;SDS011;10332;50.208;18.988;2022-08-01T08:54:49;2.15;;;1.60;;
20348;SDS011;10332;50.208;18.988;2022-08-01T08:57:19;2.22;;;1.80;;
20348;SDS011;10332;50.208;18.988;2022-08-01T08:59:47;3.33;;;2.88;;
20348;SDS011;10332;50.208;18.988;2022-08-01T09:02:19;4.38;;;2.08;;
20348;SDS011;10332;50.208;18.988;2022-08-01T09:04:48;3.90;;;2.00;;
20348;SDS011;10332;50.208;18.988;2022-08-01T09:07:17;3.20;;;2.15;;
20348;SDS011;10332;50.208;18.988;2022-08-01T09:09:45;2.38;;;1.88;;
20348;SDS011;10332;50.208;18.988;2022-08-01T09:12:16;2.67;;;1.90;;
20348;SDS011;10332;50.208;18.988;2022-08-01T09:14:45;3.80;;;2.13;;
20348;SDS011;10332;50.208;18.988;2022-08-01T09:17:17;2.53;;;2.00;;
20348;SDS011;10332;50.208;18.988;2022-08-01T09:19:46;2.67;;;2.40;;
20348;SDS011;10332;50.208;18.988;2022-08-01T09:22:24;5.57;;;3.40;;
20348;SDS011;10332;50.208;18.988;2022-08-01T09:24:57;2.67;;;2.08;;
20348;SDS011;10332;50.208;18.988;2022-08-01T09:27:38;2.15;;;1.77;;
20348;SDS011;10332;50.208;18.988;2022-08-01T09:33:07;3.85;;;2.78;;
20348;SDS011;10332;50.208;18.988;2022-08-01T09:35:54;4.20;;;3.20;;
20348;SDS011;10332;50.208;18.988;2022-08-01T09:38:24;10.77;;;9.63;;
20348;SDS011;10332;50.208;18.988;2022-08-01T09:40:57;15.65;;;12.95;;
20348;SDS011;10332;50.208;18.988;2022-08-01T09:43:29;4.95;;;3.75;;
20348;SDS011;10332;50.208;18.988;2022-08-01T09:45:59;3.67;;;3.28;;
20348;SDS011;10332;50.208;18.988;2022-08-01T09:48:38;3.60;;;2.85;;
20348;SDS011;10332;50.208;18.988;2022-08-01T09:51:29;9.82;;;7.32;;
20348;SDS011;10332;50.208;18.988;2022-08-01T09:54:32;5.13;;;4.63;;
20348;SDS011;10332;50.208;18.988;2022-08-01T09:57:07;5.60;;;3.28;;
20348;SDS011;10332;50.208;18.988;2022-08-01T09:59:45;4.57;;;4.10;;
20348;SDS011;10332;50.208;18.988;2022-08-01T10:05:10;5.32;;;3.05;;
20348;SDS011;10332;50.208;18.988;2022-08-01T10:07:57;8.90;;;5.80;;
20348;SDS011;10332;50.208;18.988;2022-08-01T10:10:28;7.03;;;5.60;;
20348;SDS011;10332;50.208;18.988;2022-08-01T10:12:58;5.68;;;4.10;;
20348;SDS011;10332;50.208;18.988;2022-08-01T10:15:29;7.85;;;5.60;;
20348;SDS011;10332;50.208;18.988;2022-08-01T10:18:04;8.93;;;7.30;;
20348;SDS011;10332;50.208;18.988;2022-08-01T10:20:46;5.00;;;3.53;;
20348;SDS011;10332;50.208;18.988;2022-08-01T10:23:15;4.13;;;3.45;;
20348;SDS011;10332;50.208;18.988;2022-08-01T10:25:46;3.40;;;2.97;;
20348;SDS011;10332;50.208;18.988;2022-08-01T10:28:21;3.55;;;3.13;;
20348;SDS011;10332;50.208;18.988;2022-08-01T10:30:52;4.75;;;3.60;;
20348;SDS011;10332;50.208;18.988;2022-08-01T10:33:22;3.25;;;2.95;;
20348;SDS011;10332;50.208;18.988;2022-08-01T10:36:11;5.20;;;3.25;;
20348;SDS011;10332;50.208;18.988;2022-08-01T10:38:38;4.78;;;3.40;;
20348;SDS011;10332;50.208;18.988;2022-08-01T10:41:07;5.28;;;3.90;;
20348;SDS011;10332;50.208;18.988;2022-08-01T10:43:36;4.78;;;4.38;;
20348;SDS011;10332;50.208;18.988;2022-08-01T10:46:04;3.45;;;3.15;;
20348;SDS011;10332;50.208;18.988;2022-08-01T10:51:24;4.40;;;2.95;;
20348;SDS011;10332;50.208;18.988;2022-08-01T10:54:13;9.93;;;8.70;;
20348;SDS011;10332;50.208;18.988;2022-08-01T10:56:45;8.65;;;7.85;;
20348;SDS011;10332;50.208;18.988;2022-08-01T10:59:22;7.90;;;6.97;;
20348;SDS011;10332;50.208;18.988;2022-08-01T11:02:26;2.80;;;2.60;;
20348;SDS011;10332;50.208;18.988;2022-08-01T11:05:00;3.50;;;3.20;;
20348;SDS011;10332;50.208;18.988;2022-08-01T11:07:53;5.40;;;2.78;;
20348;SDS011;10332;50.208;18.988;2022-08-01T11:10:42;4.28;;;3.30;;
20348;SDS011;10332;50.208;18.988;2022-08-01T11:13:10;2.78;;;2.35;;
20348;SDS011;10332;50.208;18.988;2022-08-01T11:15:39;3.83;;;3.40;;
20348;SDS011;10332;50.208;18.988;2022-08-01T11:20:59;3.55;;;3.25;;
20348;SDS011;10332;50.208;18.988;2022-08-01T11:23:49;4.78;;;3.28;;
20348;SDS011;10332;50.208;18.988;2022-08-01T11:26:23;4.65;;;3.25;;
20348;SDS011;10332;50.208;18.988;2022-08-01T11:29:12;3.55;;;3.17;;
20348;SDS011;10332;50.208;18.988;2022-08-01T11:31:48;5.97;;;4.15;;
20348;SDS011;10332;50.208;18.988;2022-08-01T11:34:17;14.88;;;11.90;;
20348;SDS011;10332;50.208;18.988;2022-08-01T11:36:45;13.93;;;10.80;;
20348;SDS011;10332;50.208;18.988;2022-08-01T11:39:29;6.22;;;4.40;;
20348;SDS011;10332;50.208;18.988;2022-08-01T11:42:17;5.60;;;3.80;;
20348;SDS011;10332;50.208;18.988;2022-08-01T11:44:49;12.18;;;9.93;;
20348;SDS011;10332;50.208;18.988;2022-08-01T11:47:18;11.45;;;9.55;;
20348;SDS011;10332;50.208;18.988;2022-08-01T11:50:29;7.68;;;5.13;;
20348;SDS011;10332;50.208;18.988;2022-08-01T11:53:05;5.05;;;4.22;;
20348;SDS011;10332;50.208;18.988;2022-08-01T11:55:36;5.82;;;4.80;;
20348;SDS011;10332;50.208;18.988;2022-08-01T11:58:20;5.30;;;4.80;;
20348;SDS011;10332;50.208;18.988;2022-08-01T12:00:58;5.20;;;4.05;;
20348;SDS011;10332;50.208;18.988;2022-08-01T12:03:29;7.13;;;5.63;;
20348;SDS011;10332;50.208;18.988;2022-08-01T12:06:00;18.45;;;14.23;;
20348;SDS011;10332;50.208;18.988;2022-08-01T12:08:29;8.35;;;6.15;;
20348;SDS011;10332;50.208;18.988;2022-08-01T12:11:04;4.55;;;4.15;;
20348;SDS011;10332;50.208;18.988;2022-08-01T12:13:39;4.32;;;3.92;;
20348;SDS011;10332;50.208;18.988;2022-08-01T12:16:09;3.42;;;2.92;;
20348;SDS011;10332;50.208;18.988;2022-08-01T12:18:38;3.55;;;3.03;;
20348;SDS011;10332;50.208;18.988;2022-08-01T12:21:08;4.80;;;4.22;;
20348;SDS011;10332;50.208;18.988;2022-08-01T12:23:36;4.95;;;3.85;;
20348;SDS011;10332;50.208;18.988;2022-08-01T12:26:03;10.32;;;9.23;;
20348;SDS011;10332;50.208;18.988;2022-08-01T12:28:38;4.15;;;3.20;;
20348;SDS011;10332;50.208;18.988;2022-08-01T12:31:07;9.82;;;8.30;;
20348;SDS011;10332;50.208;18.988;2022-08-01T12:33:34;7.38;;;4.80;;
20348;SDS011;10332;50.208;18.988;2022-08-01T12:36:02;6.93;;;4.30;;
20348;SDS011;10332;50.208;18.988;2022-08-01T12:38:29;3.88;;;3.20;;
20348;SDS011;10332;50.208;18.988;2022-08-01T12:40:59;3.15;;;2.88;;
20348;SDS011;10332;50.208;18.988;2022-08-01T12:43:26;3.20;;;2.90;;
20348;SDS011;10332;50.208;18.988;2022-08-01T12:46:01;3.00;;;2.70;;
20348;SDS011;10332;50.208;18.988;2022-08-01T12:48:29;5.13;;;3.80;;
20348;SDS011;10332;50.208;18.988;2022-08-01T12:50:58;4.47;;;2.95;;
20348;SDS011;10332;50.208;18.988;2022-08-01T12:53:33;7.70;;;5.70;;
20348;SDS011;10332;50.208;18.988;2022-08-01T12:56:06;5.47;;;3.70;;
20348;SDS011;10332;50.208;18.988;2022-08-01T12:58:36;4.00;;;2.75;;
20348;SDS011;10332;50.208;18.988;2022-08-01T13:01:04;4.50;;;2.50;;
20348;SDS011;10332;50.208;18.988;2022-08-01T13:03:39;2.33;;;1.95;;
20348;SDS011;10332;50.208;18.988;2022-08-01T13:06:11;2.45;;;2.15;;
20348;SDS011;10332;50.208;18.988;2022-08-01T13:08:43;2.63;;;2.10;;
20348;SDS011;10332;50.208;18.988;2022-08-01T13:11:12;3.72;;;2.67;;
20348;SDS011;10332;50.208;18.988;2022-08-01T13:13:50;2.35;;;2.15;;
20348;SDS011;10332;50.208;18.988;2022-08-01T13:16:20;6.40;;;5.05;;
20348;SDS011;10332;50.208;18.988;2022-08-01T13:19:13;2.60;;;2.40;;
20348;SDS011;10332;50.208;18.988;2022-08-01T13:21:52;3.25;;;2.53;;
20348;SDS011;10332;50.208;18.988;2022-08-01T13:24:26;3.28;;;2.17;;
20348;SDS011;10332;50.208;18.988;2022-08-01T13:26:56;2.40;;;2.20;;
20348;SDS011;10332;50.208;18.988;2022-08-01T13:29:37;3.28;;;2.38;;
20348;SDS011;10332;50.208;18.988;2022-08-01T13:32:12;2.95;;;2.15;;
20348;SDS011;10332;50.208;18.988;2022-08-01T13:35:05;9.48;;;8.07;;
20348;SDS011;10332;50.208;18.988;2022-08-01T13:37:38;11.07;;;9.60;;
20348;SDS011;10332;50.208;18.988;2022-08-01T13:40:08;10.65;;;8.35;;
20348;SDS011;10332;50.208;18.988;2022-08-01T13:42:37;8.63;;;6.60;;
20348;SDS011;10332;50.208;18.988;2022-08-01T13:45:05;9.32;;;8.00;;
20348;SDS011;10332;50.208;18.988;2022-08-01T13:47:41;5.35;;;4.50;;
20348;SDS011;10332;50.208;18.988;2022-08-01T13:50:29;2.92;;;2.70;;
20348;SDS011;10332;50.208;18.988;2022-08-01T13:52:57;3.35;;;3.00;;
20348;SDS011;10332;50.208;18.988;2022-08-01T13:55:24;3.13;;;2.45;;
20348;SDS011;10332;50.208;18.988;2022-08-01T13:57:59;3.38;;;2.45;;
20348;SDS011;10332;50.208;18.988;2022-08-01T14:00:27;3.17;;;2.67;;
20348;SDS011;10332;50.208;18.988;2022-08-01T14:02:54;3.40;;;2.60;;
20348;SDS011;10332;50.208;18.988;2022-08-01T14:05:21;3.20;;;2.83;;
20348;SDS011;10332;50.208;18.988;2022-08-01T14:07:49;4.00;;;3.00;;
20348;SDS011;10332;50.208;18.988;2022-08-01T14:10:22;10.52;;;9.07;;
20348;SDS011;10332;50.208;18.988;2022-08-01T14:12:51;8.93;;;7.45;;
20348;SDS011;10332;50.208;18.988;2022-08-01T14:15:22;13.60;;;10.05;;
20348;SDS011;10332;50.208;18.988;2022-08-01T14:18:08;13.38;;;10.35;;
20348;SDS011;10332;50.208;18.988;2022-08-01T14:20:36;7.50;;;4.85;;
20348;SDS011;10332;50.208;18.988;2022-08-01T14:23:07;3.80;;;3.30;;
20348;SDS011;10332;50.208;18.988;2022-08-01T14:25:39;4.25;;;3.67;;
20348;SDS011;10332;50.208;18.988;2022-08-01T14:28:28;3.72;;;3.42;;
20348;SDS011;10332;50.208;18.988;2022-08-01T14:30:57;4.00;;;3.30;;
20348;SDS011;10332;50.208;18.988;2022-08-01T14:33:25;4.22;;;3.50;;
20348;SDS011;10332;50.208;18.988;2022-08-01T14:35:54;4.72;;;3.00;;
20348;SDS011;10332;50.208;18.988;2022-08-01T14:38:42;9.73;;;8.07;;
20348;SDS011;10332;50.208;18.988;2022-08-01T14:41:13;8.55;;;7.47;;
20348;SDS011;10332;50.208;18.988;2022-08-01T14:43:46;10.55;;;9.45;;
20348;SDS011;10332;50.208;18.988;2022-08-01T14:46:13;14.18;;;12.73;;
20348;SDS011;10332;50.208;18.988;2022-08-01T14:48:41;8.13;;;6.75;;
20348;SDS011;10332;50.208;18.988;2022-08-01T14:51:08;3.63;;;3.00;;
20348;SDS011;10332;50.208;18.988;2022-08-01T14:53:36;3.33;;;3.00;;
20348;SDS011;10332;50.208;18.988;2022-08-01T14:56:04;3.95;;;3.08;;
20348;SDS011;10332;50.208;18.988;2022-08-01T14:58:32;4.45;;;3.40;;
20348;SDS011;10332;50.208;18.988;2022-08-01T15:01:00;3.50;;;3.20;;
20348;SDS011;10332;50.208;18.988;2022-08-01T15:03:27;3.97;;;3.30;;
20348;SDS011;10332;50.208;18.988;2022-08-01T15:05:55;3.42;;;3.03;;
20348;SDS011;10332;50.208;18.988;2022-08-01T15:08:22;6.32;;;3.30;;
20348;SDS011;10332;50.208;18.988;2022-08-01T15:10:50;4.45;;;3.78;;
20348;SDS011;10332;50.208;18.988;2022-08-01T15:13:17;4.53;;;3.30;;
20348;SDS011;10332;50.208;18.988;2022-08-01T15:15:46;4.25;;;3.85;;
20348;SDS011;10332;50.208;18.988;2022-08-01T15:18:13;3.88;;;3.17;;
20348;SDS011;10332;50.208;18.988;2022-08-01T15:20:41;7.00;;;5.82;;
20348;SDS011;10332;50.208;18.988;2022-08-01T15:23:08;8.93;;;6.20;;